sensor_id;sensor_type;location;lat;lon;timestamp;P1;durP1;ratioP1;P2;durP2;ratioP2
23747;SDS011;12054;53.662;10.126;2023-05-02T00:01:48;35.33;;;18.00;;
23747;SDS011;12054;53.662;10.126;2023-05-02T00:04:13;26.30;;;16.38;;
23747;SDS011;12054;53.662;10.126;2023-05-02T00:06:39;28.27;;;17.33;;
23747;SDS011;12054;53.662;10.126;2023-05-02T00:09:06;32.47;;;18.80;;
23747;SDS011;12054;53.662;10.126;2023-05-02T00:11:32;32.88;;;19.73;;
23747;SDS011;12054;53.662;10.126;2023-05-02T00:13:57;34.22;;;19.05;;
23747;SDS011;12054;53.662;10.126;2023-05-02T00:16:23;33.83;;;19.88;;
23747;SDS011;12054;53.662;10.126;2023-05-02T00:18:48;32.90;;;19.23;;
23747;SDS011;12054;53.662;10.126;2023-05-02T00:21:14;29.00;;;18.88;;
23747;SDS011;12054;53.662;10.126;2023-05-02T00:23:39;30.63;;;18.40;;
23747;SDS011;12054;53.662;10.126;2023-05-02T00:26:08;34.00;;;19.33;;
23747;SDS011;12054;53.662;10.126;2023-05-02T00:28:34;31.60;;;19.73;;
23747;SDS011;12054;53.662;10.126;2023-05-02T00:30:59;28.42;;;17.92;;
23747;SDS011;12054;53.662;10.126;2023-05-02T00:33:25;32.88;;;19.17;;
23747;SDS011;12054;53.662;10.126;2023-05-02T00:35:51;32.60;;;18.98;;
23747;SDS011;12054;53.662;10.126;2023-05-02T00:38:16;36.28;;;20.85;;
23747;SDS011;12054;53.662;10.126;2023-05-02T00:40:45;30.60;;;19.80;;
23747;SDS011;12054;53.662;10.126;2023-05-02T00:43:13;39.03;;;21.45;;
23747;SDS011;12054;53.662;10.126;2023-05-02T00:45:42;36.65;;;20.77;;
23747;SDS011;12054;53.662;10.126;2023-05-02T00:48:10;35.15;;;21.05;;
23747;SDS011;12054;53.662;10.126;2023-05-02T00:50:36;38.30;;;21.27;;
23747;SDS011;12054;53.662;10.126;2023-05-02T00:53:04;35.60;;;21.05;;
23747;SDS011;12054;53.662;10.126;2023-05-02T00:55:31;35.55;;;20.92;;
23747;SDS011;12054;53.662;10.126;2023-05-02T00:57:57;38.45;;;21.50;;
23747;SDS011;12054;53.662;10.126;2023-05-02T01:00:27;39.85;;;22.17;;
23747;SDS011;12054;53.662;10.126;2023-05-02T01:05:58;35.17;;;20.63;;
23747;SDS011;12054;53.662;10.126;2023-05-02T01:11:32;31.13;;;18.60;;
23747;SDS011;12054;53.662;10.126;2023-05-02T01:14:05;30.17;;;17.23;;
23747;SDS011;12054;53.662;10.126;2023-05-02T01:16:35;31.70;;;18.40;;
23747;SDS011;12054;53.662;10.126;2023-05-02T01:19:08;33.42;;;17.55;;
23747;SDS011;12054;53.662;10.126;2023-05-02T01:21:42;34.65;;;17.35;;
23747;SDS011;12054;53.662;10.126;2023-05-02T01:24:11;31.80;;;16.17;;
23747;SDS011;12054;53.662;10.126;2023-05-02T01:26:51;28.48;;;15.40;;
23747;SDS011;12054;53.662;10.126;2023-05-02T01:29:31;28.48;;;14.98;;
23747;SDS011;12054;53.662;10.126;2023-05-02T01:31:58;28.88;;;14.27;;
23747;SDS011;12054;53.662;10.126;2023-05-02T01:34:26;31.52;;;15.35;;
23747;SDS011;12054;53.662;10.126;2023-05-02T01:36:53;26.27;;;13.45;;
23747;SDS011;12054;53.662;10.126;2023-05-02T01:39:23;27.00;;;14.20;;
23747;SDS011;12054;53.662;10.126;2023-05-02T01:41:50;28.13;;;13.48;;
23747;SDS011;12054;53.662;10.126;2023-05-02T01:44:22;26.67;;;13.35;;
23747;SDS011;12054;53.662;10.126;2023-05-02T01:46:48;24.60;;;12.85;;
23747;SDS011;12054;53.662;10.126;2023-05-02T01:49:16;26.10;;;14.05;;
23747;SDS011;12054;53.662;10.126;2023-05-02T01:51:43;24.17;;;13.02;;
23747;SDS011;12054;53.662;10.126;2023-05-02T01:54:12;24.83;;;12.63;;
23747;SDS011;12054;53.662;10.126;2023-05-02T01:56:39;25.70;;;13.38;;
23747;SDS011;12054;53.662;10.126;2023-05-02T01:59:07;23.20;;;12.27;;
23747;SDS011;12054;53.662;10.126;2023-05-02T02:01:35;26.90;;;13.38;;
23747;SDS011;12054;53.662;10.126;2023-05-02T02:04:03;25.27;;;12.80;;
23747;SDS011;12054;53.662;10.126;2023-05-02T02:06:30;28.13;;;13.73;;
23747;SDS011;12054;53.662;10.126;2023-05-02T02:08:56;23.10;;;11.85;;
23747;SDS011;12054;53.662;10.126;2023-05-02T02:11:26;22.50;;;12.02;;
23747;SDS011;12054;53.662;10.126;2023-05-02T02:13:59;22.02;;;12.00;;
23747;SDS011;12054;53.662;10.126;2023-05-02T02:16:31;23.00;;;11.68;;
23747;SDS011;12054;53.662;10.126;2023-05-02T02:18:58;21.77;;;10.07;;
23747;SDS011;12054;53.662;10.126;2023-05-02T02:21:32;17.42;;;10.23;;
23747;SDS011;12054;53.662;10.126;2023-05-02T02:24:00;16.15;;;8.23;;
23747;SDS011;12054;53.662;10.126;2023-05-02T02:26:27;14.10;;;8.50;;
23747;SDS011;12054;53.662;10.126;2023-05-02T02:28:53;14.75;;;8.38;;
23747;SDS011;12054;53.662;10.126;2023-05-02T02:31:20;12.73;;;7.10;;
23747;SDS011;12054;53.662;10.126;2023-05-02T02:33:45;11.00;;;6.97;;
23747;SDS011;12054;53.662;10.126;2023-05-02T02:36:14;12.30;;;7.18;;
23747;SDS011;12054;53.662;10.126;2023-05-02T02:39:07;10.13;;;6.65;;
23747;SDS011;12054;53.662;10.126;2023-05-02T02:48:14;5.32;;;3.65;;
23747;SDS011;12054;53.662;10.126;2023-05-02T02:53:00;5.18;;;2.53;;
23747;SDS011;12054;53.662;10.126;2023-05-02T02:55:39;6.13;;;2.63;;
23747;SDS011;12054;53.662;10.126;2023-05-02T03:00:59;10.02;;;3.15;;
23747;SDS011;12054;53.662;10.126;2023-05-02T03:03:29;8.80;;;3.30;;
23747;SDS011;12054;53.662;10.126;2023-05-02T03:05:56;9.13;;;3.17;;
23747;SDS011;12054;53.662;10.126;2023-05-02T03:08:23;11.65;;;3.50;;
23747;SDS011;12054;53.662;10.126;2023-05-02T03:10:49;10.43;;;3.72;;
23747;SDS011;12054;53.662;10.126;2023-05-02T03:13:15;13.40;;;4.35;;
23747;SDS011;12054;53.662;10.126;2023-05-02T03:18:19;11.43;;;3.40;;
23747;SDS011;12054;53.662;10.126;2023-05-02T03:20:44;11.32;;;4.25;;
23747;SDS011;12054;53.662;10.126;2023-05-02T03:23:10;12.18;;;3.65;;
23747;SDS011;12054;53.662;10.126;2023-05-02T03:25:35;12.82;;;3.60;;
23747;SDS011;12054;53.662;10.126;2023-05-02T03:28:01;9.18;;;3.42;;
23747;SDS011;12054;53.662;10.126;2023-05-02T03:30:26;11.85;;;3.08;;
23747;SDS011;12054;53.662;10.126;2023-05-02T03:32:52;14.88;;;3.40;;
23747;SDS011;12054;53.662;10.126;2023-05-02T03:35:18;12.55;;;3.53;;
23747;SDS011;12054;53.662;10.126;2023-05-02T03:37:43;8.57;;;3.05;;
23747;SDS011;12054;53.662;10.126;2023-05-02T03:40:09;13.35;;;3.20;;
23747;SDS011;12054;53.662;10.126;2023-05-02T03:42:35;9.07;;;3.60;;
23747;SDS011;12054;53.662;10.126;2023-05-02T03:45:05;14.18;;;4.03;;
23747;SDS011;12054;53.662;10.126;2023-05-02T03:47:31;11.80;;;3.45;;
23747;SDS011;12054;53.662;10.126;2023-05-02T03:49:57;18.92;;;4.55;;
23747;SDS011;12054;53.662;10.126;2023-05-02T03:52:23;13.27;;;4.38;;
23747;SDS011;12054;53.662;10.126;2023-05-02T03:54:49;16.50;;;3.70;;
23747;SDS011;12054;53.662;10.126;2023-05-02T03:57:15;15.02;;;4.53;;
23747;SDS011;12054;53.662;10.126;2023-05-02T03:59:41;12.85;;;3.47;;
23747;SDS011;12054;53.662;10.126;2023-05-02T04:02:09;10.18;;;3.20;;
23747;SDS011;12054;53.662;10.126;2023-05-02T04:04:35;13.88;;;3.10;;
23747;SDS011;12054;53.662;10.126;2023-05-02T04:07:01;13.43;;;3.10;;
23747;SDS011;12054;53.662;10.126;2023-05-02T04:09:27;14.07;;;3.90;;
23747;SDS011;12054;53.662;10.126;2023-05-02T04:11:52;10.98;;;4.45;;
23747;SDS011;12054;53.662;10.126;2023-05-02T04:14:18;11.13;;;3.55;;
23747;SDS011;12054;53.662;10.126;2023-05-02T04:16:47;8.27;;;3.10;;
23747;SDS011;12054;53.662;10.126;2023-05-02T04:19:13;11.70;;;3.70;;
23747;SDS011;12054;53.662;10.126;2023-05-02T04:21:39;11.02;;;3.05;;
23747;SDS011;12054;53.662;10.126;2023-05-02T04:24:05;14.25;;;3.50;;
23747;SDS011;12054;53.662;10.126;2023-05-02T04:26:32;11.73;;;3.33;;
23747;SDS011;12054;53.662;10.126;2023-05-02T04:28:57;12.00;;;3.03;;
23747;SDS011;12054;53.662;10.126;2023-05-02T04:31:23;10.27;;;3.03;;
23747;SDS011;12054;53.662;10.126;2023-05-02T04:33:48;11.38;;;3.47;;
23747;SDS011;12054;53.662;10.126;2023-05-02T04:36:14;13.77;;;4.00;;
23747;SDS011;12054;53.662;10.126;2023-05-02T04:38:40;10.00;;;3.20;;
23747;SDS011;12054;53.662;10.126;2023-05-02T04:41:06;14.20;;;3.47;;
23747;SDS011;12054;53.662;10.126;2023-05-02T04:43:31;11.88;;;3.72;;
23747;SDS011;12054;53.662;10.126;2023-05-02T04:45:57;16.65;;;3.92;;
23747;SDS011;12054;53.662;10.126;2023-05-02T04:48:22;12.48;;;3.63;;
23747;SDS011;12054;53.662;10.126;2023-05-02T04:50:49;11.38;;;3.58;;
23747;SDS011;12054;53.662;10.126;2023-05-02T04:53:17;14.77;;;3.80;;
23747;SDS011;12054;53.662;10.126;2023-05-02T04:55:43;9.82;;;3.22;;
23747;SDS011;12054;53.662;10.126;2023-05-02T04:58:08;10.18;;;3.42;;
23747;SDS011;12054;53.662;10.126;2023-05-02T05:00:34;12.10;;;3.75;;
23747;SDS011;12054;53.662;10.126;2023-05-02T05:02:59;12.30;;;3.20;;
23747;SDS011;12054;53.662;10.126;2023-05-02T05:05:25;11.07;;;3.05;;
23747;SDS011;12054;53.662;10.126;2023-05-02T05:07:51;10.60;;;3.22;;
23747;SDS011;12054;53.662;10.126;2023-05-02T05:10:16;10.27;;;3.55;;
23747;SDS011;12054;53.662;10.126;2023-05-02T05:12:42;11.43;;;3.25;;
23747;SDS011;12054;53.662;10.126;2023-05-02T05:15:07;14.07;;;3.10;;
23747;SDS011;12054;53.662;10.126;2023-05-02T05:17:34;8.40;;;2.92;;
23747;SDS011;12054;53.662;10.126;2023-05-02T05:20:00;11.23;;;3.22;;
23747;SDS011;12054;53.662;10.126;2023-05-02T05:22:26;10.93;;;2.80;;
23747;SDS011;12054;53.662;10.126;2023-05-02T05:24:52;8.95;;;2.92;;
23747;SDS011;12054;53.662;10.126;2023-05-02T05:27:18;8.88;;;2.80;;
23747;SDS011;12054;53.662;10.126;2023-05-02T05:29:43;13.48;;;3.30;;
23747;SDS011;12054;53.662;10.126;2023-05-02T05:32:09;11.65;;;2.47;;
23747;SDS011;12054;53.662;10.126;2023-05-02T05:34:34;10.63;;;3.53;;
23747;SDS011;12054;53.662;10.126;2023-05-02T05:37:00;9.07;;;2.75;;
23747;SDS011;12054;53.662;10.126;2023-05-02T05:39:26;12.38;;;3.17;;
23747;SDS011;12054;53.662;10.126;2023-05-02T05:41:51;10.25;;;3.05;;
23747;SDS011;12054;53.662;10.126;2023-05-02T05:44:17;6.85;;;2.42;;
23747;SDS011;12054;53.662;10.126;2023-05-02T05:46:45;10.85;;;2.80;;
23747;SDS011;12054;53.662;10.126;2023-05-02T05:49:11;4.72;;;2.53;;
23747;SDS011;12054;53.662;10.126;2023-05-02T05:51:39;12.40;;;3.00;;
23747;SDS011;12054;53.662;10.126;2023-05-02T05:54:05;10.20;;;3.05;;
23747;SDS011;12054;53.662;10.126;2023-05-02T05:56:31;9.95;;;3.00;;
23747;SDS011;12054;53.662;10.126;2023-05-02T05:58:56;8.88;;;2.70;;
23747;SDS011;12054;53.662;10.126;2023-05-02T06:01:22;12.68;;;3.22;;
23747;SDS011;12054;53.662;10.126;2023-05-02T06:03:47;10.98;;;3.00;;
23747;SDS011;12054;53.662;10.126;2023-05-02T06:06:13;7.35;;;2.63;;
23747;SDS011;12054;53.662;10.126;2023-05-02T06:08:39;9.75;;;2.83;;
23747;SDS011;12054;53.662;10.126;2023-05-02T06:11:08;12.85;;;3.08;;
23747;SDS011;12054;53.662;10.126;2023-05-02T06:13:35;8.68;;;2.72;;
23747;SDS011;12054;53.662;10.126;2023-05-02T06:16:01;9.38;;;2.90;;
23747;SDS011;12054;53.662;10.126;2023-05-02T06:18:27;7.55;;;2.53;;
23747;SDS011;12054;53.662;10.126;2023-05-02T06:20:53;10.00;;;2.85;;
23747;SDS011;12054;53.662;10.126;2023-05-02T06:23:18;6.35;;;2.78;;
23747;SDS011;12054;53.662;10.126;2023-05-02T06:25:44;9.00;;;2.92;;
23747;SDS011;12054;53.662;10.126;2023-05-02T06:28:09;9.90;;;3.42;;
23747;SDS011;12054;53.662;10.126;2023-05-02T06:30:35;13.02;;;3.45;;
23747;SDS011;12054;53.662;10.126;2023-05-02T06:33:02;8.23;;;2.72;;
23747;SDS011;12054;53.662;10.126;2023-05-02T06:35:28;8.65;;;2.40;;
23747;SDS011;12054;53.662;10.126;2023-05-02T06:37:54;10.23;;;2.35;;
23747;SDS011;12054;53.662;10.126;2023-05-02T06:40:20;5.88;;;2.30;;
23747;SDS011;12054;53.662;10.126;2023-05-02T06:42:45;9.38;;;2.58;;
23747;SDS011;12054;53.662;10.126;2023-05-02T06:45:11;7.85;;;2.05;;
23747;SDS011;12054;53.662;10.126;2023-05-02T06:47:36;7.45;;;2.28;;
23747;SDS011;12054;53.662;10.126;2023-05-02T06:50:02;6.15;;;2.25;;
23747;SDS011;12054;53.662;10.126;2023-05-02T06:52:28;7.35;;;2.20;;
23747;SDS011;12054;53.662;10.126;2023-05-02T06:54:53;4.65;;;2.30;;
23747;SDS011;12054;53.662;10.126;2023-05-02T06:57:19;6.20;;;2.25;;
23747;SDS011;12054;53.662;10.126;2023-05-02T06:59:44;5.60;;;1.98;;
23747;SDS011;12054;53.662;10.126;2023-05-02T07:02:10;6.57;;;2.10;;
23747;SDS011;12054;53.662;10.126;2023-05-02T07:04:35;6.13;;;2.13;;
23747;SDS011;12054;53.662;10.126;2023-05-02T07:07:01;7.45;;;2.38;;
23747;SDS011;12054;53.662;10.126;2023-05-02T07:09:27;5.40;;;2.00;;
23747;SDS011;12054;53.662;10.126;2023-05-02T07:11:53;5.15;;;2.13;;
23747;SDS011;12054;53.662;10.126;2023-05-02T07:14:19;6.95;;;2.10;;
23747;SDS011;12054;53.662;10.126;2023-05-02T07:16:45;6.88;;;2.10;;
23747;SDS011;12054;53.662;10.126;2023-05-02T07:19:11;7.95;;;2.42;;
23747;SDS011;12054;53.662;10.126;2023-05-02T07:21:36;8.00;;;1.95;;
23747;SDS011;12054;53.662;10.126;2023-05-02T07:24:02;5.95;;;3.03;;
23747;SDS011;12054;53.662;10.126;2023-05-02T07:26:27;5.80;;;2.25;;
23747;SDS011;12054;53.662;10.126;2023-05-02T07:28:53;6.90;;;2.00;;
23747;SDS011;12054;53.662;10.126;2023-05-02T07:31:19;4.80;;;1.92;;
23747;SDS011;12054;53.662;10.126;2023-05-02T07:33:44;4.57;;;1.80;;
23747;SDS011;12054;53.662;10.126;2023-05-02T07:36:10;5.15;;;1.98;;
23747;SDS011;12054;53.662;10.126;2023-05-02T07:38:38;6.85;;;1.75;;
23747;SDS011;12054;53.662;10.126;2023-05-02T07:41:04;3.05;;;1.80;;
23747;SDS011;12054;53.662;10.126;2023-05-02T07:43:30;3.95;;;1.88;;
23747;SDS011;12054;53.662;10.126;2023-05-02T07:45:56;9.05;;;1.70;;
23747;SDS011;12054;53.662;10.126;2023-05-02T07:48:21;7.25;;;1.80;;
23747;SDS011;12054;53.662;10.126;2023-05-02T07:50:47;6.70;;;2.83;;
23747;SDS011;12054;53.662;10.126;2023-05-02T07:53:12;4.75;;;1.50;;
23747;SDS011;12054;53.662;10.126;2023-05-02T07:55:38;5.75;;;2.10;;
23747;SDS011;12054;53.662;10.126;2023-05-02T07:58:03;5.70;;;1.63;;
23747;SDS011;12054;53.662;10.126;2023-05-02T08:00:29;5.07;;;1.80;;
23747;SDS011;12054;53.662;10.126;2023-05-02T08:02:55;7.68;;;2.20;;
23747;SDS011;12054;53.662;10.126;2023-05-02T08:05:20;7.70;;;1.90;;
23747;SDS011;12054;53.662;10.126;2023-05-02T08:07:46;8.48;;;1.67;;
23747;SDS011;12054;53.662;10.126;2023-05-02T08:10:12;5.93;;;1.85;;
23747;SDS011;12054;53.662;10.126;2023-05-02T08:12:38;7.05;;;1.75;;
23747;SDS011;12054;53.662;10.126;2023-05-02T08:15:05;6.10;;;1.65;;
23747;SDS011;12054;53.662;10.126;2023-05-02T08:17:32;4.72;;;1.63;;
23747;SDS011;12054;53.662;10.126;2023-05-02T08:19:58;6.18;;;1.85;;
23747;SDS011;12054;53.662;10.126;2023-05-02T08:22:23;6.68;;;1.98;;
23747;SDS011;12054;53.662;10.126;2023-05-02T08:24:49;5.60;;;1.90;;
23747;SDS011;12054;53.662;10.126;2023-05-02T08:27:14;6.65;;;1.83;;
23747;SDS011;12054;53.662;10.126;2023-05-02T08:29:40;5.70;;;1.63;;
23747;SDS011;12054;53.662;10.126;2023-05-02T08:32:05;5.70;;;2.00;;
23747;SDS011;12054;53.662;10.126;2023-05-02T08:34:31;8.13;;;1.60;;
23747;SDS011;12054;53.662;10.126;2023-05-02T08:36:57;5.40;;;1.60;;
23747;SDS011;12054;53.662;10.126;2023-05-02T08:39:23;6.30;;;2.70;;
23747;SDS011;12054;53.662;10.126;2023-05-02T08:41:48;6.85;;;2.00;;
23747;SDS011;12054;53.662;10.126;2023-05-02T08:44:14;7.88;;;1.80;;
23747;SDS011;12054;53.662;10.126;2023-05-02T08:46:40;6.63;;;1.88;;
23747;SDS011;12054;53.662;10.126;2023-05-02T08:49:09;9.18;;;2.10;;
23747;SDS011;12054;53.662;10.126;2023-05-02T08:51:35;3.15;;;1.75;;
23747;SDS011;12054;53.662;10.126;2023-05-02T08:54:02;5.97;;;1.70;;
23747;SDS011;12054;53.662;10.126;2023-05-02T08:56:31;10.98;;;2.33;;
23747;SDS011;12054;53.662;10.126;2023-05-02T08:58:57;5.85;;;1.77;;
23747;SDS011;12054;53.662;10.126;2023-05-02T09:01:23;5.88;;;1.80;;
23747;SDS011;12054;53.662;10.126;2023-05-02T09:03:57;7.05;;;1.80;;
23747;SDS011;12054;53.662;10.126;2023-05-02T09:06:24;4.45;;;1.50;;
23747;SDS011;12054;53.662;10.126;2023-05-02T09:08:51;4.45;;;1.48;;
23747;SDS011;12054;53.662;10.126;2023-05-02T09:11:17;4.60;;;1.55;;
23747;SDS011;12054;53.662;10.126;2023-05-02T09:13:44;3.88;;;1.40;;
23747;SDS011;12054;53.662;10.126;2023-05-02T09:18:45;3.85;;;1.60;;
23747;SDS011;12054;53.662;10.126;2023-05-02T09:26:09;5.55;;;1.50;;
23747;SDS011;12054;53.662;10.126;2023-05-02T09:28:46;4.25;;;1.75;;
23747;SDS011;12054;53.662;10.126;2023-05-02T09:31:14;5.43;;;1.48;;
23747;SDS011;12054;53.662;10.126;2023-05-02T09:33:41;6.20;;;1.90;;
23747;SDS011;12054;53.662;10.126;2023-05-02T09:36:10;3.15;;;1.40;;
23747;SDS011;12054;53.662;10.126;2023-05-02T09:38:38;4.07;;;1.67;;
23747;SDS011;12054;53.662;10.126;2023-05-02T09:41:05;2.78;;;1.58;;
23747;SDS011;12054;53.662;10.126;2023-05-02T09:43:31;3.63;;;1.77;;
23747;SDS011;12054;53.662;10.126;2023-05-02T09:48:26;4.15;;;1.85;;
23747;SDS011;12054;53.662;10.126;2023-05-02T09:50:53;4.50;;;2.20;;
23747;SDS011;12054;53.662;10.126;2023-05-02T09:53:19;3.63;;;2.30;;
23747;SDS011;12054;53.662;10.126;2023-05-02T09:55:45;2.83;;;1.90;;
23747;SDS011;12054;53.662;10.126;2023-05-02T09:58:20;5.13;;;1.63;;
23747;SDS011;12054;53.662;10.126;2023-05-02T10:00:47;4.38;;;1.75;;
23747;SDS011;12054;53.662;10.126;2023-05-02T10:03:15;3.95;;;2.08;;
23747;SDS011;12054;53.662;10.126;2023-05-02T10:05:42;3.78;;;1.70;;
23747;SDS011;12054;53.662;10.126;2023-05-02T10:08:08;4.70;;;1.88;;
23747;SDS011;12054;53.662;10.126;2023-05-02T10:10:36;4.82;;;1.85;;
23747;SDS011;12054;53.662;10.126;2023-05-02T10:13:03;5.55;;;1.80;;
23747;SDS011;12054;53.662;10.126;2023-05-02T10:15:30;4.88;;;1.60;;
23747;SDS011;12054;53.662;10.126;2023-05-02T10:18:00;3.78;;;1.60;;
23747;SDS011;12054;53.662;10.126;2023-05-02T10:20:33;4.82;;;1.70;;
23747;SDS011;12054;53.662;10.126;2023-05-02T10:23:01;4.40;;;1.95;;
23747;SDS011;12054;53.662;10.126;2023-05-02T10:25:27;5.72;;;2.47;;
23747;SDS011;12054;53.662;10.126;2023-05-02T10:27:55;5.40;;;2.58;;
23747;SDS011;12054;53.662;10.126;2023-05-02T10:30:24;6.35;;;2.30;;
23747;SDS011;12054;53.662;10.126;2023-05-02T10:32:51;2.70;;;1.90;;
23747;SDS011;12054;53.662;10.126;2023-05-02T10:35:18;3.03;;;2.10;;
23747;SDS011;12054;53.662;10.126;2023-05-02T10:37:44;3.15;;;2.10;;
23747;SDS011;12054;53.662;10.126;2023-05-02T10:40:13;2.97;;;2.00;;
23747;SDS011;12054;53.662;10.126;2023-05-02T10:42:41;2.70;;;1.60;;
23747;SDS011;12054;53.662;10.126;2023-05-02T10:45:29;3.45;;;1.50;;
23747;SDS011;12054;53.662;10.126;2023-05-02T10:50:51;2.78;;;1.90;;
23747;SDS011;12054;53.662;10.126;2023-05-02T10:53:34;5.28;;;1.90;;
23747;SDS011;12054;53.662;10.126;2023-05-02T10:56:11;4.93;;;2.20;;
23747;SDS011;12054;53.662;10.126;2023-05-02T10:58:45;4.78;;;2.08;;
23747;SDS011;12054;53.662;10.126;2023-05-02T11:03:56;5.72;;;1.60;;
23747;SDS011;12054;53.662;10.126;2023-05-02T11:06:24;3.45;;;1.85;;
23747;SDS011;12054;53.662;10.126;2023-05-02T11:08:50;4.68;;;1.60;;
23747;SDS011;12054;53.662;10.126;2023-05-02T11:14:08;6.40;;;1.80;;
23747;SDS011;12054;53.662;10.126;2023-05-02T11:17:04;6.45;;;2.00;;
23747;SDS011;12054;53.662;10.126;2023-05-02T11:24:47;5.07;;;1.70;;
23747;SDS011;12054;53.662;10.126;2023-05-02T11:29:54;3.45;;;1.58;;
23747;SDS011;12054;53.662;10.126;2023-05-02T11:32:21;3.22;;;1.65;;
23747;SDS011;12054;53.662;10.126;2023-05-02T11:34:47;2.50;;;1.35;;
23747;SDS011;12054;53.662;10.126;2023-05-02T11:37:17;4.28;;;1.70;;
23747;SDS011;12054;53.662;10.126;2023-05-02T11:39:44;2.85;;;1.50;;
23747;SDS011;12054;53.662;10.126;2023-05-02T11:42:28;5.38;;;2.10;;
23747;SDS011;12054;53.662;10.126;2023-05-02T11:44:55;4.18;;;1.50;;
23747;SDS011;12054;53.662;10.126;2023-05-02T11:47:22;3.45;;;1.52;;
23747;SDS011;12054;53.662;10.126;2023-05-02T11:49:47;3.13;;;1.60;;
23747;SDS011;12054;53.662;10.126;2023-05-02T11:52:13;5.40;;;1.60;;
23747;SDS011;12054;53.662;10.126;2023-05-02T11:54:39;7.18;;;1.83;;
23747;SDS011;12054;53.662;10.126;2023-05-02T11:57:06;4.82;;;1.70;;
23747;SDS011;12054;53.662;10.126;2023-05-02T11:59:48;5.88;;;2.22;;
23747;SDS011;12054;53.662;10.126;2023-05-02T12:02:14;4.40;;;2.10;;
23747;SDS011;12054;53.662;10.126;2023-05-02T12:04:43;4.32;;;1.90;;
23747;SDS011;12054;53.662;10.126;2023-05-02T12:07:09;3.83;;;1.90;;
23747;SDS011;12054;53.662;10.126;2023-05-02T12:09:34;5.80;;;2.30;;
23747;SDS011;12054;53.662;10.126;2023-05-02T12:12:03;3.72;;;1.60;;
23747;SDS011;12054;53.662;10.126;2023-05-02T12:14:29;5.13;;;1.70;;
23747;SDS011;12054;53.662;10.126;2023-05-02T12:16:57;7.30;;;1.70;;
23747;SDS011;12054;53.662;10.126;2023-05-02T12:19:23;3.75;;;1.70;;
23747;SDS011;12054;53.662;10.126;2023-05-02T12:21:49;4.40;;;1.67;;
23747;SDS011;12054;53.662;10.126;2023-05-02T12:24:15;3.53;;;1.73;;
23747;SDS011;12054;53.662;10.126;2023-05-02T12:26:41;4.20;;;1.48;;
23747;SDS011;12054;53.662;10.126;2023-05-02T12:29:07;5.28;;;1.73;;
23747;SDS011;12054;53.662;10.126;2023-05-02T12:31:33;3.50;;;1.75;;
23747;SDS011;12054;53.662;10.126;2023-05-02T12:33:58;5.85;;;1.85;;
23747;SDS011;12054;53.662;10.126;2023-05-02T12:36:25;4.90;;;1.75;;
23747;SDS011;12054;53.662;10.126;2023-05-02T12:38:55;3.60;;;1.40;;
23747;SDS011;12054;53.662;10.126;2023-05-02T12:41:30;4.60;;;1.27;;
23747;SDS011;12054;53.662;10.126;2023-05-02T12:44:03;3.05;;;1.45;;
23747;SDS011;12054;53.662;10.126;2023-05-02T12:46:29;5.32;;;1.55;;
23747;SDS011;12054;53.662;10.126;2023-05-02T12:49:05;3.55;;;1.45;;
23747;SDS011;12054;53.662;10.126;2023-05-02T12:51:33;6.35;;;1.90;;
23747;SDS011;12054;53.662;10.126;2023-05-02T12:54:00;5.78;;;2.15;;
23747;SDS011;12054;53.662;10.126;2023-05-02T12:56:26;3.53;;;2.20;;
23747;SDS011;12054;53.662;10.126;2023-05-02T12:58:56;5.18;;;2.05;;
23747;SDS011;12054;53.662;10.126;2023-05-02T13:01:25;5.25;;;1.77;;
23747;SDS011;12054;53.662;10.126;2023-05-02T13:03:50;5.45;;;1.73;;
23747;SDS011;12054;53.662;10.126;2023-05-02T13:06:16;5.57;;;1.73;;
23747;SDS011;12054;53.662;10.126;2023-05-02T13:08:42;4.55;;;1.60;;
23747;SDS011;12054;53.662;10.126;2023-05-02T13:11:10;1.83;;;1.33;;
23747;SDS011;12054;53.662;10.126;2023-05-02T13:13:36;6.03;;;1.50;;
23747;SDS011;12054;53.662;10.126;2023-05-02T13:16:02;3.67;;;1.50;;
23747;SDS011;12054;53.662;10.126;2023-05-02T13:18:28;6.60;;;1.70;;
23747;SDS011;12054;53.662;10.126;2023-05-02T13:20:53;7.72;;;1.90;;
23747;SDS011;12054;53.662;10.126;2023-05-02T13:23:19;6.50;;;1.90;;
23747;SDS011;12054;53.662;10.126;2023-05-02T13:25:45;5.03;;;2.20;;
23747;SDS011;12054;53.662;10.126;2023-05-02T13:28:10;5.50;;;2.40;;
23747;SDS011;12054;53.662;10.126;2023-05-02T13:30:36;4.32;;;2.25;;
23747;SDS011;12054;53.662;10.126;2023-05-02T13:33:01;4.10;;;2.80;;
23747;SDS011;12054;53.662;10.126;2023-05-02T13:35:30;8.10;;;2.80;;
23747;SDS011;12054;53.662;10.126;2023-05-02T13:37:55;7.55;;;2.92;;
23747;SDS011;12054;53.662;10.126;2023-05-02T13:40:21;5.38;;;2.05;;
23747;SDS011;12054;53.662;10.126;2023-05-02T13:42:46;4.00;;;1.73;;
23747;SDS011;12054;53.662;10.126;2023-05-02T13:45:12;4.50;;;1.60;;
23747;SDS011;12054;53.662;10.126;2023-05-02T13:47:38;4.78;;;1.60;;
23747;SDS011;12054;53.662;10.126;2023-05-02T13:50:04;4.75;;;1.63;;
23747;SDS011;12054;53.662;10.126;2023-05-02T13:52:30;2.03;;;1.30;;
23747;SDS011;12054;53.662;10.126;2023-05-02T13:54:56;5.55;;;1.42;;
23747;SDS011;12054;53.662;10.126;2023-05-02T13:57:21;4.43;;;1.70;;
23747;SDS011;12054;53.662;10.126;2023-05-02T13:59:47;4.07;;;2.20;;
23747;SDS011;12054;53.662;10.126;2023-05-02T14:02:13;3.90;;;2.10;;
23747;SDS011;12054;53.662;10.126;2023-05-02T14:04:39;2.75;;;2.05;;
23747;SDS011;12054;53.662;10.126;2023-05-02T14:07:04;3.42;;;2.00;;
23747;SDS011;12054;53.662;10.126;2023-05-02T14:09:30;4.60;;;1.77;;
23747;SDS011;12054;53.662;10.126;2023-05-02T14:11:56;5.60;;;1.73;;
23747;SDS011;12054;53.662;10.126;2023-05-02T14:14:22;3.65;;;1.60;;
23747;SDS011;12054;53.662;10.126;2023-05-02T14:16:48;3.83;;;1.30;;
23747;SDS011;12054;53.662;10.126;2023-05-02T14:19:14;5.05;;;1.60;;
23747;SDS011;12054;53.662;10.126;2023-05-02T14:21:40;3.95;;;2.00;;
23747;SDS011;12054;53.662;10.126;2023-05-02T14:24:05;4.80;;;1.73;;
23747;SDS011;12054;53.662;10.126;2023-05-02T14:26:31;3.50;;;1.50;;
23747;SDS011;12054;53.662;10.126;2023-05-02T14:28:57;4.78;;;1.73;;
23747;SDS011;12054;53.662;10.126;2023-05-02T14:31:23;5.00;;;1.77;;
23747;SDS011;12054;53.662;10.126;2023-05-02T14:33:48;5.88;;;1.95;;
23747;SDS011;12054;53.662;10.126;2023-05-02T14:36:14;4.50;;;1.92;;
23747;SDS011;12054;53.662;10.126;2023-05-02T14:38:40;6.40;;;2.40;;
23747;SDS011;12054;53.662;10.126;2023-05-02T14:41:05;8.07;;;2.17;;
23747;SDS011;12054;53.662;10.126;2023-05-02T14:43:31;4.47;;;2.10;;
23747;SDS011;12054;53.662;10.126;2023-05-02T14:45:57;6.65;;;1.85;;
23747;SDS011;12054;53.662;10.126;2023-05-02T14:48:23;7.05;;;2.38;;
23747;SDS011;12054;53.662;10.126;2023-05-02T14:50:48;4.18;;;1.52;;
23747;SDS011;12054;53.662;10.126;2023-05-02T14:53:18;3.47;;;1.52;;
23747;SDS011;12054;53.662;10.126;2023-05-02T14:55:44;5.15;;;1.50;;
23747;SDS011;12054;53.662;10.126;2023-05-02T14:58:10;3.10;;;1.88;;
23747;SDS011;12054;53.662;10.126;2023-05-02T15:00:36;8.00;;;2.60;;
23747;SDS011;12054;53.662;10.126;2023-05-02T15:03:02;4.97;;;2.00;;
23747;SDS011;12054;53.662;10.126;2023-05-02T15:05:28;5.85;;;1.90;;
23747;SDS011;12054;53.662;10.126;2023-05-02T15:07:54;6.18;;;2.08;;
23747;SDS011;12054;53.662;10.126;2023-05-02T15:10:20;3.08;;;1.55;;
23747;SDS011;12054;53.662;10.126;2023-05-02T15:12:45;7.03;;;2.22;;
23747;SDS011;12054;53.662;10.126;2023-05-02T15:15:14;5.20;;;1.48;;